sensor_id;sensor_type;location;lat;lon;timestamp;P1;durP1;ratioP1;P2;durP2;ratioP2
43146;SDS011;28752;48.266;7.402;2023-08-30T00:01:34;6.17;;;5.57;;
43146;SDS011;28752;48.266;7.402;2023-08-30T00:03:59;5.87;;;5.27;;
43146;SDS011;28752;48.266;7.402;2023-08-30T00:06:25;6.83;;;5.60;;
43146;SDS011;28752;48.266;7.402;2023-08-30T00:08:51;7.15;;;5.70;;
43146;SDS011;28752;48.266;7.402;2023-08-30T00:11:16;6.90;;;5.67;;
43146;SDS011;28752;48.266;7.402;2023-08-30T00:13:41;10.80;;;5.80;;
43146;SDS011;28752;48.266;7.402;2023-08-30T00:16:07;8.32;;;5.55;;
43146;SDS011;28752;48.266;7.402;2023-08-30T00:18:32;6.83;;;5.37;;
43146;SDS011;28752;48.266;7.402;2023-08-30T00:20:58;8.47;;;5.83;;
43146;SDS011;28752;48.266;7.402;2023-08-30T00:23:23;7.70;;;5.63;;
43146;SDS011;28752;48.266;7.402;2023-08-30T00:25:49;10.98;;;5.70;;
43146;SDS011;28752;48.266;7.402;2023-08-30T00:28:14;7.07;;;6.00;;
43146;SDS011;28752;48.266;7.402;2023-08-30T00:30:39;9.43;;;6.20;;
43146;SDS011;28752;48.266;7.402;2023-08-30T00:33:05;6.93;;;6.00;;
43146;SDS011;28752;48.266;7.402;2023-08-30T00:35:31;7.70;;;6.10;;
43146;SDS011;28752;48.266;7.402;2023-08-30T00:37:56;7.80;;;5.90;;
43146;SDS011;28752;48.266;7.402;2023-08-30T00:40:24;8.13;;;6.10;;
43146;SDS011;28752;48.266;7.402;2023-08-30T00:42:50;7.40;;;5.45;;
43146;SDS011;28752;48.266;7.402;2023-08-30T00:45:15;7.60;;;6.30;;
43146;SDS011;28752;48.266;7.402;2023-08-30T00:47:41;8.13;;;5.83;;
43146;SDS011;28752;48.266;7.402;2023-08-30T00:50:07;8.90;;;6.50;;
43146;SDS011;28752;48.266;7.402;2023-08-30T00:52:34;8.90;;;6.13;;
43146;SDS011;28752;48.266;7.402;2023-08-30T00:55:00;8.15;;;6.18;;
43146;SDS011;28752;48.266;7.402;2023-08-30T00:57:25;7.30;;;6.20;;
43146;SDS011;28752;48.266;7.402;2023-08-30T00:59:51;7.20;;;5.47;;
43146;SDS011;28752;48.266;7.402;2023-08-30T01:02:19;7.75;;;5.97;;
43146;SDS011;28752;48.266;7.402;2023-08-30T01:04:45;6.27;;;5.40;;
43146;SDS011;28752;48.266;7.402;2023-08-30T01:07:10;7.55;;;5.95;;
43146;SDS011;28752;48.266;7.402;2023-08-30T01:09:36;8.20;;;6.10;;
43146;SDS011;28752;48.266;7.402;2023-08-30T01:12:07;7.03;;;5.93;;
43146;SDS011;28752;48.266;7.402;2023-08-30T01:14:39;7.72;;;6.00;;
43146;SDS011;28752;48.266;7.402;2023-08-30T01:17:10;7.18;;;5.68;;
43146;SDS011;28752;48.266;7.402;2023-08-30T01:19:59;8.57;;;5.82;;
43146;SDS011;28752;48.266;7.402;2023-08-30T01:25:32;8.00;;;5.47;;
43146;SDS011;28752;48.266;7.402;2023-08-30T01:28:08;7.40;;;6.15;;
43146;SDS011;28752;48.266;7.402;2023-08-30T01:30:35;7.07;;;5.93;;
43146;SDS011;28752;48.266;7.402;2023-08-30T01:33:02;7.75;;;6.07;;
43146;SDS011;28752;48.266;7.402;2023-08-30T01:35:29;6.50;;;5.70;;
43146;SDS011;28752;48.266;7.402;2023-08-30T01:37:57;7.35;;;5.80;;
43146;SDS011;28752;48.266;7.402;2023-08-30T01:40:25;8.48;;;5.85;;
43146;SDS011;28752;48.266;7.402;2023-08-30T01:42:53;8.82;;;6.10;;
43146;SDS011;28752;48.266;7.402;2023-08-30T01:45:20;6.93;;;5.97;;
43146;SDS011;28752;48.266;7.402;2023-08-30T01:47:48;8.88;;;6.25;;
43146;SDS011;28752;48.266;7.402;2023-08-30T01:50:14;8.13;;;6.50;;
43146;SDS011;28752;48.266;7.402;2023-08-30T01:52:40;7.43;;;5.80;;
43146;SDS011;28752;48.266;7.402;2023-08-30T01:57:33;7.88;;;6.20;;
43146;SDS011;28752;48.266;7.402;2023-08-30T01:59:59;8.33;;;6.00;;
43146;SDS011;28752;48.266;7.402;2023-08-30T02:02:24;8.67;;;5.77;;
43146;SDS011;28752;48.266;7.402;2023-08-30T02:04:53;8.18;;;6.47;;
43146;SDS011;28752;48.266;7.402;2023-08-30T02:07:20;7.67;;;6.00;;
43146;SDS011;28752;48.266;7.402;2023-08-30T02:09:50;7.22;;;6.13;;
43146;SDS011;28752;48.266;7.402;2023-08-30T02:12:22;6.45;;;5.22;;
43146;SDS011;28752;48.266;7.402;2023-08-30T02:14:50;7.28;;;5.88;;
43146;SDS011;28752;48.266;7.402;2023-08-30T02:17:17;7.57;;;5.97;;
43146;SDS011;28752;48.266;7.402;2023-08-30T02:22:08;9.80;;;6.20;;
43146;SDS011;28752;48.266;7.402;2023-08-30T02:24:34;7.97;;;6.28;;
43146;SDS011;28752;48.266;7.402;2023-08-30T02:27:00;8.80;;;5.90;;
43146;SDS011;28752;48.266;7.402;2023-08-30T02:29:25;8.90;;;5.67;;
43146;SDS011;28752;48.266;7.402;2023-08-30T02:31:50;9.17;;;6.10;;
43146;SDS011;28752;48.266;7.402;2023-08-30T02:34:16;6.80;;;5.57;;
43146;SDS011;28752;48.266;7.402;2023-08-30T02:36:41;7.43;;;6.30;;
43146;SDS011;28752;48.266;7.402;2023-08-30T02:39:06;8.67;;;6.13;;
43146;SDS011;28752;48.266;7.402;2023-08-30T02:41:32;8.95;;;5.65;;
43146;SDS011;28752;48.266;7.402;2023-08-30T02:43:57;7.07;;;5.73;;
43146;SDS011;28752;48.266;7.402;2023-08-30T02:46:22;8.00;;;6.60;;
43146;SDS011;28752;48.266;7.402;2023-08-30T02:48:48;7.40;;;6.47;;
43146;SDS011;28752;48.266;7.402;2023-08-30T02:51:13;7.57;;;6.30;;
43146;SDS011;28752;48.266;7.402;2023-08-30T02:53:38;9.80;;;5.70;;
43146;SDS011;28752;48.266;7.402;2023-08-30T02:56:04;7.80;;;5.47;;
43146;SDS011;28752;48.266;7.402;2023-08-30T02:58:29;7.63;;;6.10;;
43146;SDS011;28752;48.266;7.402;2023-08-30T03:00:54;8.03;;;6.17;;
43146;SDS011;28752;48.266;7.402;2023-08-30T03:03:20;6.77;;;5.37;;
43146;SDS011;28752;48.266;7.402;2023-08-30T03:05:45;7.10;;;5.80;;
43146;SDS011;28752;48.266;7.402;2023-08-30T03:08:10;7.63;;;6.20;;
43146;SDS011;28752;48.266;7.402;2023-08-30T03:10:35;7.87;;;5.57;;
43146;SDS011;28752;48.266;7.402;2023-08-30T03:13:01;7.20;;;5.67;;
43146;SDS011;28752;48.266;7.402;2023-08-30T03:15:26;8.30;;;5.80;;
43146;SDS011;28752;48.266;7.402;2023-08-30T03:17:52;7.67;;;5.87;;
43146;SDS011;28752;48.266;7.402;2023-08-30T03:20:17;8.03;;;5.73;;
43146;SDS011;28752;48.266;7.402;2023-08-30T03:22:42;7.80;;;5.60;;
43146;SDS011;28752;48.266;7.402;2023-08-30T03:25:08;6.83;;;5.97;;
43146;SDS011;28752;48.266;7.402;2023-08-30T03:32:24;6.90;;;5.20;;
43146;SDS011;28752;48.266;7.402;2023-08-30T03:34:50;7.77;;;5.83;;
43146;SDS011;28752;48.266;7.402;2023-08-30T03:37:15;6.97;;;5.37;;
43146;SDS011;28752;48.266;7.402;2023-08-30T03:39:41;8.75;;;5.80;;
43146;SDS011;28752;48.266;7.402;2023-08-30T03:42:07;10.32;;;5.90;;
43146;SDS011;28752;48.266;7.402;2023-08-30T03:44:33;8.57;;;6.13;;
43146;SDS011;28752;48.266;7.402;2023-08-30T03:46:58;6.70;;;5.73;;
43146;SDS011;28752;48.266;7.402;2023-08-30T03:49:24;7.63;;;5.77;;
43146;SDS011;28752;48.266;7.402;2023-08-30T03:51:49;7.30;;;5.87;;
43146;SDS011;28752;48.266;7.402;2023-08-30T03:54:14;8.60;;;5.40;;
43146;SDS011;28752;48.266;7.402;2023-08-30T03:56:45;8.30;;;6.18;;
43146;SDS011;28752;48.266;7.402;2023-08-30T03:59:11;9.45;;;6.03;;
43146;SDS011;28752;48.266;7.402;2023-08-30T04:01:37;8.10;;;5.78;;
43146;SDS011;28752;48.266;7.402;2023-08-30T04:04:02;8.75;;;5.63;;
43146;SDS011;28752;48.266;7.402;2023-08-30T04:06:28;8.32;;;5.82;;
43146;SDS011;28752;48.266;7.402;2023-08-30T04:08:53;6.87;;;5.60;;
43146;SDS011;28752;48.266;7.402;2023-08-30T04:11:18;9.10;;;5.87;;
43146;SDS011;28752;48.266;7.402;2023-08-30T04:13:44;6.70;;;5.20;;
43146;SDS011;28752;48.266;7.402;2023-08-30T04:16:09;7.60;;;5.53;;
43146;SDS011;28752;48.266;7.402;2023-08-30T04:18:34;7.77;;;5.33;;
43146;SDS011;28752;48.266;7.402;2023-08-30T04:21:00;6.87;;;5.03;;
43146;SDS011;28752;48.266;7.402;2023-08-30T04:23:27;6.25;;;5.30;;
43146;SDS011;28752;48.266;7.402;2023-08-30T04:25:53;7.63;;;5.40;;
43146;SDS011;28752;48.266;7.402;2023-08-30T04:28:18;7.50;;;5.50;;
43146;SDS011;28752;48.266;7.402;2023-08-30T04:30:43;7.53;;;5.70;;
43146;SDS011;28752;48.266;7.402;2023-08-30T04:33:09;8.60;;;5.50;;
43146;SDS011;28752;48.266;7.402;2023-08-30T04:35:34;10.33;;;5.70;;
43146;SDS011;28752;48.266;7.402;2023-08-30T04:38:00;6.47;;;5.30;;
43146;SDS011;28752;48.266;7.402;2023-08-30T04:40:26;6.25;;;5.30;;
43146;SDS011;28752;48.266;7.402;2023-08-30T04:42:52;7.72;;;5.22;;
43146;SDS011;28752;48.266;7.402;2023-08-30T04:45:17;8.67;;;5.50;;
43146;SDS011;28752;48.266;7.402;2023-08-30T04:47:43;7.20;;;4.90;;
43146;SDS011;28752;48.266;7.402;2023-08-30T04:50:10;7.07;;;5.65;;
43146;SDS011;28752;48.266;7.402;2023-08-30T04:52:35;7.67;;;5.47;;
43146;SDS011;28752;48.266;7.402;2023-08-30T04:55:01;7.97;;;6.13;;
43146;SDS011;28752;48.266;7.402;2023-08-30T04:57:26;7.90;;;5.57;;
43146;SDS011;28752;48.266;7.402;2023-08-30T04:59:52;7.65;;;5.90;;
43146;SDS011;28752;48.266;7.402;2023-08-30T05:02:17;8.03;;;6.00;;
43146;SDS011;28752;48.266;7.402;2023-08-30T05:04:43;6.10;;;4.00;;
43146;SDS011;28752;48.266;7.402;2023-08-30T05:07:08;6.37;;;4.00;;
43146;SDS011;28752;48.266;7.402;2023-08-30T05:09:33;5.50;;;3.70;;
43146;SDS011;28752;48.266;7.402;2023-08-30T05:12:00;4.75;;;3.38;;
43146;SDS011;28752;48.266;7.402;2023-08-30T05:14:25;4.93;;;3.33;;
43146;SDS011;28752;48.266;7.402;2023-08-30T05:16:51;5.53;;;3.45;;
43146;SDS011;28752;48.266;7.402;2023-08-30T05:19:17;6.77;;;3.60;;
43146;SDS011;28752;48.266;7.402;2023-08-30T05:21:43;5.43;;;3.50;;
43146;SDS011;28752;48.266;7.402;2023-08-30T05:24:08;6.47;;;3.75;;
43146;SDS011;28752;48.266;7.402;2023-08-30T05:26:35;5.22;;;3.33;;
43146;SDS011;28752;48.266;7.402;2023-08-30T05:29:01;5.47;;;3.47;;
43146;SDS011;28752;48.266;7.402;2023-08-30T05:31:26;5.55;;;3.55;;
43146;SDS011;28752;48.266;7.402;2023-08-30T05:33:52;6.10;;;3.87;;
43146;SDS011;28752;48.266;7.402;2023-08-30T05:36:17;5.73;;;3.67;;
43146;SDS011;28752;48.266;7.402;2023-08-30T05:38:43;5.30;;;3.10;;
43146;SDS011;28752;48.266;7.402;2023-08-30T05:41:08;6.77;;;3.97;;
43146;SDS011;28752;48.266;7.402;2023-08-30T05:43:33;7.90;;;6.10;;
43146;SDS011;28752;48.266;7.402;2023-08-30T05:45:59;6.80;;;6.00;;
43146;SDS011;28752;48.266;7.402;2023-08-30T05:48:27;8.73;;;5.60;;
43146;SDS011;28752;48.266;7.402;2023-08-30T05:50:53;7.10;;;5.47;;
43146;SDS011;28752;48.266;7.402;2023-08-30T05:53:18;7.07;;;5.20;;
43146;SDS011;28752;48.266;7.402;2023-08-30T05:55:44;6.93;;;5.50;;
43146;SDS011;28752;48.266;7.402;2023-08-30T05:58:09;7.83;;;5.40;;
43146;SDS011;28752;48.266;7.402;2023-08-30T06:00:34;6.67;;;5.53;;
43146;SDS011;28752;48.266;7.402;2023-08-30T06:03:00;6.03;;;5.10;;
43146;SDS011;28752;48.266;7.402;2023-08-30T06:05:25;6.50;;;5.40;;
43146;SDS011;28752;48.266;7.402;2023-08-30T06:07:51;9.48;;;5.63;;
43146;SDS011;28752;48.266;7.402;2023-08-30T06:10:16;6.80;;;5.57;;
43146;SDS011;28752;48.266;7.402;2023-08-30T06:12:42;6.93;;;4.93;;
43146;SDS011;28752;48.266;7.402;2023-08-30T06:15:07;6.57;;;5.53;;
43146;SDS011;28752;48.266;7.402;2023-08-30T06:17:33;8.02;;;5.53;;
43146;SDS011;28752;48.266;7.402;2023-08-30T06:19:58;8.00;;;5.90;;
43146;SDS011;28752;48.266;7.402;2023-08-30T06:22:23;7.70;;;5.82;;
43146;SDS011;28752;48.266;7.402;2023-08-30T06:24:49;7.93;;;5.50;;
43146;SDS011;28752;48.266;7.402;2023-08-30T06:27:14;5.70;;;3.73;;
43146;SDS011;28752;48.266;7.402;2023-08-30T06:29:39;7.80;;;3.83;;
43146;SDS011;28752;48.266;7.402;2023-08-30T06:32:05;7.00;;;4.00;;
43146;SDS011;28752;48.266;7.402;2023-08-30T06:34:30;7.07;;;4.07;;
43146;SDS011;28752;48.266;7.402;2023-08-30T06:36:56;7.77;;;4.37;;
43146;SDS011;28752;48.266;7.402;2023-08-30T06:39:21;15.07;;;6.03;;
43146;SDS011;28752;48.266;7.402;2023-08-30T06:41:47;15.45;;;6.13;;
43146;SDS011;28752;48.266;7.402;2023-08-30T06:44:12;7.20;;;4.60;;
43146;SDS011;28752;48.266;7.402;2023-08-30T06:46:38;6.43;;;4.80;;
43146;SDS011;28752;48.266;7.402;2023-08-30T06:49:04;5.85;;;4.40;;
43146;SDS011;28752;48.266;7.402;2023-08-30T06:51:30;6.18;;;4.53;;
43146;SDS011;28752;48.266;7.402;2023-08-30T06:53:55;6.30;;;4.10;;
43146;SDS011;28752;48.266;7.402;2023-08-30T06:56:25;5.82;;;4.20;;
43146;SDS011;28752;48.266;7.402;2023-08-30T06:58:51;5.68;;;4.10;;
43146;SDS011;28752;48.266;7.402;2023-08-30T07:01:16;6.07;;;4.40;;
43146;SDS011;28752;48.266;7.402;2023-08-30T07:03:41;6.17;;;4.33;;
43146;SDS011;28752;48.266;7.402;2023-08-30T07:06:07;5.07;;;3.63;;
43146;SDS011;28752;48.266;7.402;2023-08-30T07:08:32;5.50;;;3.77;;
43146;SDS011;28752;48.266;7.402;2023-08-30T07:10:58;6.65;;;3.95;;
43146;SDS011;28752;48.266;7.402;2023-08-30T07:13:23;5.53;;;4.00;;
43146;SDS011;28752;48.266;7.402;2023-08-30T07:15:48;5.40;;;3.40;;
43146;SDS011;28752;48.266;7.402;2023-08-30T07:18:14;5.17;;;3.80;;
43146;SDS011;28752;48.266;7.402;2023-08-30T07:20:39;6.37;;;2.80;;
43146;SDS011;28752;48.266;7.402;2023-08-30T07:23:05;4.40;;;2.47;;
43146;SDS011;28752;48.266;7.402;2023-08-30T07:25:30;3.73;;;2.23;;
43146;SDS011;28752;48.266;7.402;2023-08-30T07:27:57;3.88;;;2.25;;
43146;SDS011;28752;48.266;7.402;2023-08-30T07:30:22;3.87;;;2.30;;
43146;SDS011;28752;48.266;7.402;2023-08-30T07:32:48;5.70;;;2.23;;
43146;SDS011;28752;48.266;7.402;2023-08-30T07:35:13;3.87;;;2.30;;
43146;SDS011;28752;48.266;7.402;2023-08-30T07:37:39;5.28;;;2.85;;
43146;SDS011;28752;48.266;7.402;2023-08-30T07:40:04;3.57;;;2.17;;
43146;SDS011;28752;48.266;7.402;2023-08-30T07:42:30;4.80;;;2.80;;
43146;SDS011;28752;48.266;7.402;2023-08-30T07:44:55;4.82;;;2.72;;
43146;SDS011;28752;48.266;7.402;2023-08-30T07:47:20;5.33;;;2.90;;
43146;SDS011;28752;48.266;7.402;2023-08-30T07:49:46;5.20;;;3.30;;
43146;SDS011;28752;48.266;7.402;2023-08-30T07:52:11;5.90;;;3.33;;
43146;SDS011;28752;48.266;7.402;2023-08-30T07:54:39;5.00;;;3.20;;
43146;SDS011;28752;48.266;7.402;2023-08-30T07:57:05;7.10;;;3.80;;
43146;SDS011;28752;48.266;7.402;2023-08-30T07:59:35;5.30;;;3.10;;
43146;SDS011;28752;48.266;7.402;2023-08-30T08:02:01;4.13;;;2.90;;
43146;SDS011;28752;48.266;7.402;2023-08-30T08:04:27;7.10;;;3.53;;
43146;SDS011;28752;48.266;7.402;2023-08-30T08:06:52;4.93;;;3.00;;
43146;SDS011;28752;48.266;7.402;2023-08-30T08:09:18;6.50;;;2.90;;
43146;SDS011;28752;48.266;7.402;2023-08-30T08:11:43;4.47;;;2.77;;
43146;SDS011;28752;48.266;7.402;2023-08-30T08:14:09;3.73;;;2.60;;
43146;SDS011;28752;48.266;7.402;2023-08-30T08:16:36;4.68;;;2.70;;
43146;SDS011;28752;48.266;7.402;2023-08-30T08:19:01;3.87;;;2.57;;
43146;SDS011;28752;48.266;7.402;2023-08-30T08:21:26;5.93;;;3.05;;
43146;SDS011;28752;48.266;7.402;2023-08-30T08:23:52;4.90;;;3.13;;
43146;SDS011;28752;48.266;7.402;2023-08-30T08:26:17;4.47;;;2.97;;
43146;SDS011;28752;48.266;7.402;2023-08-30T08:28:43;6.18;;;2.70;;
43146;SDS011;28752;48.266;7.402;2023-08-30T08:31:09;5.10;;;2.95;;
43146;SDS011;28752;48.266;7.402;2023-08-30T08:33:34;5.32;;;2.80;;
43146;SDS011;28752;48.266;7.402;2023-08-30T08:36:00;4.88;;;2.70;;
43146;SDS011;28752;48.266;7.402;2023-08-30T08:38:26;5.95;;;2.47;;
43146;SDS011;28752;48.266;7.402;2023-08-30T08:40:53;3.97;;;2.63;;
43146;SDS011;28752;48.266;7.402;2023-08-30T08:43:26;4.03;;;2.63;;
43146;SDS011;28752;48.266;7.402;2023-08-30T08:45:53;4.13;;;2.70;;
43146;SDS011;28752;48.266;7.402;2023-08-30T08:48:24;5.85;;;2.47;;
43146;SDS011;28752;48.266;7.402;2023-08-30T08:50:53;8.05;;;2.47;;
43146;SDS011;28752;48.266;7.402;2023-08-30T08:53:19;4.10;;;2.40;;
43146;SDS011;28752;48.266;7.402;2023-08-30T08:55:46;5.10;;;2.88;;
43146;SDS011;28752;48.266;7.402;2023-08-30T08:58:13;4.95;;;2.80;;
43146;SDS011;28752;48.266;7.402;2023-08-30T09:00:39;4.25;;;2.60;;
43146;SDS011;28752;48.266;7.402;2023-08-30T09:03:07;5.05;;;2.70;;
43146;SDS011;28752;48.266;7.402;2023-08-30T09:05:33;3.47;;;2.38;;
43146;SDS011;28752;48.266;7.402;2023-08-30T09:08:02;4.55;;;2.53;;
43146;SDS011;28752;48.266;7.402;2023-08-30T09:10:29;5.38;;;2.88;;
43146;SDS011;28752;48.266;7.402;2023-08-30T09:12:54;5.97;;;3.05;;
43146;SDS011;28752;48.266;7.402;2023-08-30T09:15:20;5.10;;;3.33;;
43146;SDS011;28752;48.266;7.402;2023-08-30T09:20:12;4.47;;;2.42;;
43146;SDS011;28752;48.266;7.402;2023-08-30T09:25:10;4.95;;;3.00;;
43146;SDS011;28752;48.266;7.402;2023-08-30T09:27:47;4.40;;;3.00;;
43146;SDS011;28752;48.266;7.402;2023-08-30T09:30:12;4.75;;;2.95;;
43146;SDS011;28752;48.266;7.402;2023-08-30T09:32:38;10.55;;;3.38;;
43146;SDS011;28752;48.266;7.402;2023-08-30T09:35:05;5.30;;;3.20;;
43146;SDS011;28752;48.266;7.402;2023-08-30T09:37:31;5.38;;;3.58;;
43146;SDS011;28752;48.266;7.402;2023-08-30T09:39:56;4.37;;;3.03;;
43146;SDS011;28752;48.266;7.402;2023-08-30T09:42:22;5.22;;;3.22;;
43146;SDS011;28752;48.266;7.402;2023-08-30T09:44:47;4.57;;;3.30;;
43146;SDS011;28752;48.266;7.402;2023-08-30T09:49:43;4.55;;;3.20;;
43146;SDS011;28752;48.266;7.402;2023-08-30T09:52:14;4.22;;;3.03;;
43146;SDS011;28752;48.266;7.402;2023-08-30T09:54:41;4.68;;;2.70;;
43146;SDS011;28752;48.266;7.402;2023-08-30T09:57:08;3.90;;;2.60;;
43146;SDS011;28752;48.266;7.402;2023-08-30T09:59:37;6.82;;;2.95;;
43146;SDS011;28752;48.266;7.402;2023-08-30T10:02:05;5.53;;;3.08;;
43146;SDS011;28752;48.266;7.402;2023-08-30T10:04:31;5.32;;;2.70;;
43146;SDS011;28752;48.266;7.402;2023-08-30T10:06:57;5.22;;;3.33;;
43146;SDS011;28752;48.266;7.402;2023-08-30T10:09:23;5.88;;;3.70;;
43146;SDS011;28752;48.266;7.402;2023-08-30T10:14:15;4.47;;;3.05;;
43146;SDS011;28752;48.266;7.402;2023-08-30T10:19:14;6.22;;;3.10;;
43146;SDS011;28752;48.266;7.402;2023-08-30T10:21:40;4.18;;;2.90;;
43146;SDS011;28752;48.266;7.402;2023-08-30T10:24:08;4.85;;;2.97;;
43146;SDS011;28752;48.266;7.402;2023-08-30T10:26:45;4.13;;;2.67;;
43146;SDS011;28752;48.266;7.402;2023-08-30T10:29:12;4.47;;;3.10;;
43146;SDS011;28752;48.266;7.402;2023-08-30T10:31:38;5.15;;;3.13;;
43146;SDS011;28752;48.266;7.402;2023-08-30T10:36:38;4.95;;;2.40;;
43146;SDS011;28752;48.266;7.402;2023-08-30T10:39:03;4.63;;;3.17;;
43146;SDS011;28752;48.266;7.402;2023-08-30T10:41:37;4.68;;;2.80;;
43146;SDS011;28752;48.266;7.402;2023-08-30T10:44:02;5.33;;;2.70;;
43146;SDS011;28752;48.266;7.402;2023-08-30T10:46:31;5.30;;;3.17;;
43146;SDS011;28752;48.266;7.402;2023-08-30T10:49:13;4.78;;;3.10;;
43146;SDS011;28752;48.266;7.402;2023-08-30T10:51:42;13.32;;;3.30;;
43146;SDS011;28752;48.266;7.402;2023-08-30T10:54:15;6.50;;;3.00;;
43146;SDS011;28752;48.266;7.402;2023-08-30T10:59:17;4.90;;;3.15;;
43146;SDS011;28752;48.266;7.402;2023-08-30T11:01:43;4.78;;;2.72;;
43146;SDS011;28752;48.266;7.402;2023-08-30T11:04:10;3.55;;;2.00;;
43146;SDS011;28752;48.266;7.402;2023-08-30T11:06:38;4.35;;;2.58;;
43146;SDS011;28752;48.266;7.402;2023-08-30T11:09:04;3.85;;;2.35;;
43146;SDS011;28752;48.266;7.402;2023-08-30T11:11:30;6.18;;;2.65;;
43146;SDS011;28752;48.266;7.402;2023-08-30T11:14:03;3.80;;;2.47;;
43146;SDS011;28752;48.266;7.402;2023-08-30T11:16:29;4.82;;;2.80;;
43146;SDS011;28752;48.266;7.402;2023-08-30T11:18:54;4.60;;;2.90;;
43146;SDS011;28752;48.266;7.402;2023-08-30T11:21:20;4.30;;;2.90;;
43146;SDS011;28752;48.266;7.402;2023-08-30T11:23:45;5.10;;;3.50;;
43146;SDS011;28752;48.266;7.402;2023-08-30T11:26:11;5.80;;;3.20;;
43146;SDS011;28752;48.266;7.402;2023-08-30T11:28:37;4.60;;;2.80;;
43146;SDS011;28752;48.266;7.402;2023-08-30T11:31:08;4.43;;;3.10;;
43146;SDS011;28752;48.266;7.402;2023-08-30T11:33:34;4.95;;;2.88;;
43146;SDS011;28752;48.266;7.402;2023-08-30T11:35:59;6.05;;;3.20;;
43146;SDS011;28752;48.266;7.402;2023-08-30T11:38:26;4.55;;;3.10;;
43146;SDS011;28752;48.266;7.402;2023-08-30T11:40:51;5.88;;;3.40;;
43146;SDS011;28752;48.266;7.402;2023-08-30T11:43:17;4.90;;;2.88;;
43146;SDS011;28752;48.266;7.402;2023-08-30T11:45:43;5.40;;;2.90;;
43146;SDS011;28752;48.266;7.402;2023-08-30T11:48:08;5.10;;;2.70;;
43146;SDS011;28752;48.266;7.402;2023-08-30T11:50:33;5.70;;;3.20;;
43146;SDS011;28752;48.266;7.402;2023-08-30T11:53:00;4.43;;;2.78;;
43146;SDS011;28752;48.266;7.402;2023-08-30T11:55:26;3.85;;;2.47;;
43146;SDS011;28752;48.266;7.402;2023-08-30T11:57:51;4.57;;;2.58;;
43146;SDS011;28752;48.266;7.402;2023-08-30T12:00:18;3.88;;;2.40;;
43146;SDS011;28752;48.266;7.402;2023-08-30T12:02:44;3.80;;;2.38;;
43146;SDS011;28752;48.266;7.402;2023-08-30T12:05:11;5.32;;;2.90;;
43146;SDS011;28752;48.266;7.402;2023-08-30T12:07:40;5.38;;;2.90;;
43146;SDS011;28752;48.266;7.402;2023-08-30T12:10:07;3.53;;;2.20;;
43146;SDS011;28752;48.266;7.402;2023-08-30T12:12:35;4.47;;;2.40;;
43146;SDS011;28752;48.266;7.402;2023-08-30T12:17:32;3.88;;;2.40;;
43146;SDS011;28752;48.266;7.402;2023-08-30T12:19:59;5.32;;;2.55;;
43146;SDS011;28752;48.266;7.402;2023-08-30T12:25:26;4.60;;;2.80;;
43146;SDS011;28752;48.266;7.402;2023-08-30T12:27:52;3.38;;;2.17;;
43146;SDS011;28752;48.266;7.402;2023-08-30T12:30:18;3.63;;;2.33;;
43146;SDS011;28752;48.266;7.402;2023-08-30T12:32:44;5.22;;;2.40;;
43146;SDS011;28752;48.266;7.402;2023-08-30T12:37:36;3.35;;;2.00;;
43146;SDS011;28752;48.266;7.402;2023-08-30T12:40:01;3.22;;;2.00;;
43146;SDS011;28752;48.266;7.402;2023-08-30T12:42:26;3.67;;;2.20;;
43146;SDS011;28752;48.266;7.402;2023-08-30T12:44:51;3.70;;;2.00;;
43146;SDS011;28752;48.266;7.402;2023-08-30T12:47:17;2.97;;;1.77;;
43146;SDS011;28752;48.266;7.402;2023-08-30T12:49:42;4.27;;;1.87;;
43146;SDS011;28752;48.266;7.402;2023-08-30T12:52:07;2.77;;;1.73;;
43146;SDS011;28752;48.266;7.402;2023-08-30T12:54:33;4.35;;;2.00;;
43146;SDS011;28752;48.266;7.402;2023-08-30T12:56:58;4.13;;;1.90;;
43146;SDS011;28752;48.266;7.402;2023-08-30T12:59:23;3.47;;;1.80;;
43146;SDS011;28752;48.266;7.402;2023-08-30T13:01:49;4.45;;;1.98;;
43146;SDS011;28752;48.266;7.402;2023-08-30T13:04:14;3.28;;;1.80;;
43146;SDS011;28752;48.266;7.402;2023-08-30T13:06:40;5.33;;;2.27;;
43146;SDS011;28752;48.266;7.402;2023-08-30T13:09:05;4.00;;;1.95;;
43146;SDS011;28752;48.266;7.402;2023-08-30T13:11:30;4.97;;;1.85;;
43146;SDS011;28752;48.266;7.402;2023-08-30T13:13:57;3.45;;;1.77;;
43146;SDS011;28752;48.266;7.402;2023-08-30T13:16:23;3.20;;;1.88;;
43146;SDS011;28752;48.266;7.402;2023-08-30T13:21:15;3.72;;;1.70;;
43146;SDS011;28752;48.266;7.402;2023-08-30T13:23:40;3.67;;;1.88;;
43146;SDS011;28752;48.266;7.402;2023-08-30T13:26:05;2.97;;;1.77;;
43146;SDS011;28752;48.266;7.402;2023-08-30T13:28:31;2.90;;;1.70;;
43146;SDS011;28752;48.266;7.402;2023-08-30T13:30:56;4.20;;;1.80;;
43146;SDS011;28752;48.266;7.402;2023-08-30T13:33:21;3.63;;;1.90;;
43146;SDS011;28752;48.266;7.402;2023-08-30T13:35:50;4.15;;;1.90;;
43146;SDS011;28752;48.266;7.402;2023-08-30T13:38:16;3.03;;;1.63;;
43146;SDS011;28752;48.266;7.402;2023-08-30T13:40:42;2.92;;;1.60;;
43146;SDS011;28752;48.266;7.402;2023-08-30T13:43:07;2.50;;;1.60;;
43146;SDS011;28752;48.266;7.402;2023-08-30T13:45:32;3.53;;;1.80;;
43146;SDS011;28752;48.266;7.402;2023-08-30T13:47:58;4.25;;;1.83;;
43146;SDS011;28752;48.266;7.402;2023-08-30T13:52:51;3.47;;;1.75;;
43146;SDS011;28752;48.266;7.402;2023-08-30T13:55:16;3.20;;;2.10;;
43146;SDS011;28752;48.266;7.402;2023-08-30T13:57:42;3.45;;;1.70;;
43146;SDS011;28752;48.266;7.402;2023-08-30T14:00:07;4.13;;;1.93;;
43146;SDS011;28752;48.266;7.402;2023-08-30T14:02:35;4.30;;;1.80;;
43146;SDS011;28752;48.266;7.402;2023-08-30T14:05:00;4.53;;;1.88;;
43146;SDS011;28752;48.266;7.402;2023-08-30T14:07:26;2.75;;;1.50;;
43146;SDS011;28752;48.266;7.402;2023-08-30T14:09:51;2.53;;;1.40;;
43146;SDS011;28752;48.266;7.402;2023-08-30T14:12:18;3.22;;;2.00;;
43146;SDS011;28752;48.266;7.402;2023-08-30T14:14:43;2.40;;;1.50;;
43146;SDS011;28752;48.266;7.402;2023-08-30T14:17:08;3.73;;;1.60;;
43146;SDS011;28752;48.266;7.402;2023-08-30T14:19:34;3.93;;;1.97;;
43146;SDS011;28752;48.266;7.402;2023-08-30T14:22:00;3.58;;;1.70;;
43146;SDS011;28752;48.266;7.402;2023-08-30T14:24:27;4.05;;;1.98;;
43146;SDS011;28752;48.266;7.402;2023-08-30T14:26:53;2.67;;;1.67;;
43146;SDS011;28752;48.266;7.402;2023-08-30T14:29:19;3.23;;;1.80;;
43146;SDS011;28752;48.266;7.402;2023-08-30T14:31:46;3.05;;;1.77;;
43146;SDS011;28752;48.266;7.402;2023-08-30T14:34:11;3.65;;;1.55;;
43146;SDS011;28752;48.266;7.402;2023-08-30T14:36:37;2.83;;;1.67;;
43146;SDS011;28752;48.266;7.402;2023-08-30T14:39:02;2.90;;;1.67;;
43146;SDS011;28752;48.266;7.402;2023-08-30T14:41:28;3.13;;;1.95;;
43146;SDS011;28752;48.266;7.402;2023-08-30T14:43:53;3.63;;;1.95;;
43146;SDS011;28752;48.266;7.402;2023-08-30T14:46:19;4.10;;;1.80;;
43146;SDS011;28752;48.266;7.402;2023-08-30T14:48:45;4.50;;;1.95;;
43146;SDS011;28752;48.266;7.402;2023-08-30T14:51:10;3.47;;;1.90;;
43146;SDS011;28752;48.266;7.402;2023-08-30T14:53:36;4.82;;;2.33;;
43146;SDS011;28752;48.266;7.402;2023-08-30T14:56:02;3.95;;;2.20;;
43146;SDS011;28752;48.266;7.402;2023-08-30T14:58:31;3.85;;;2.10;;
43146;SDS011;28752;48.266;7.402;2023-08-30T15:00:58;3.47;;;1.90;;
43146;SDS011;28752;48.266;7.402;2023-08-30T15:03:23;3.97;;;2.10;;
43146;SDS011;28752;48.266;7.402;2023-08-30T15:05:55;4.13;;;2.33;;
43146;SDS011;28752;48.266;7.402;2023-08-30T15:08:21;5.45;;;2.45;;
43146;SDS011;28752;48.266;7.402;2023-08-30T15:10:48;4.40;;;1.55;;
43146;SDS011;28752;48.266;7.402;2023-08-30T15:13:13;2.72;;;1.27;;
43146;SDS011;28752;48.266;7.402;2023-08-30T15:15:39;5.37;;;2.13;;
43146;SDS011;28752;48.266;7.402;2023-08-30T15:18:04;3.28;;;1.20;;
43146;SDS011;28752;48.266;7.402;2023-08-30T15:20:29;3.33;;;1.40;;
43146;SDS011;28752;48.266;7.402;2023-08-30T15:22:55;3.87;;;2.03;;
43146;SDS011;28752;48.266;7.402;2023-08-30T15:25:23;3.67;;;1.90;;